Stornoway — WDC7908 — position and weather

sailwx.info

Track history (hours):
 
Tides and Currents Weather Stations Pressure Air Temp Water Temp Dewpoint Dewpoint Depression Visibility Wind Speed Wind Dir Waves Ship Positions

Stornoway

More information available from US FCC via Universal Licensing System and Coast Guard Vessel Documentation Center.

Last reported at 2014-Aug-25 15:19 UTC. Time now 2014-Aug-28 13:26 UTC.
Position N 50°48' W 127°14'.

Length 13 m.

Type: Pleasure craft. MMSI: 367078810.

Date/timePositionNaut miles runAvg speedWind from/ knotsBaromVisibWave heightAir tempDewpointWater temp
2014-Aug-25 15:19N 50°48' W 127°14'6 2.0
2014-Aug-25 12:10N 50°54' W 127°18'0 0.0
2014-Aug-25 10:04N 50°54' W 127°18'0 0.0
2014-Aug-25 08:16N 50°54' W 127°18'0 0.0
2014-Aug-25 06:28N 50°54' W 127°18'0 0.0
2014-Aug-25 00:11N 50°54' W 127°18'0 0.0
2014-Aug-24 22:11N 50°54' W 127°18'  
2014-Aug-18 18:27N 52°10' W 128°01'3 2.1
2014-Aug-18 17:06N 52°09' W 128°05'0 0.0
2014-Aug-18 16:30N 52°09' W 128°05'0 0.0
2014-Aug-18 15:24N 52°09' W 128°05'0 0.0
2014-Aug-18 14:30N 52°09' W 128°05'0 0.0
2014-Aug-18 13:30N 52°09' W 128°05'0 0.0
2014-Aug-18 12:18N 52°09' W 128°05'0 0.0
2014-Aug-18 11:30N 52°09' W 128°05'0 0.0
2014-Aug-18 10:30N 52°09' W 128°05'0 0.0
2014-Aug-18 09:30N 52°09' W 128°05'0 0.0
2014-Aug-18 08:24N 52°09' W 128°05'0 0.0
2014-Aug-18 06:18N 52°09' W 128°05'0 0.0
2014-Aug-18 00:18N 52°09' W 128°05'0 0.0
2014-Aug-17 18:12N 52°09' W 128°05'0 0.0
2014-Aug-17 17:30N 52°09' W 128°05'4 3.8
2014-Aug-17 16:29N 52°12' W 128°08'  
Track history (hours):
 
Tides and Currents Weather Stations Pressure Air Temp Water Temp Dewpoint Dewpoint Depression Visibility Wind Speed Wind Dir Waves Ship Positions

Stornoway

More information available from US FCC via Universal Licensing System and Coast Guard Vessel Documentation Center.

Last reported at 2014-Aug-25 15:19 UTC. Time now 2014-Aug-28 13:26 UTC.
Position N 50°48' W 127°14'.

Length 13 m.

Type: Pleasure craft. MMSI: 367078810.

Date/timePositionNaut miles runAvg speedWind from/ knotsBaromVisibWave heightAir tempDewpointWater temp
2014-Aug-25 15:19N 50°48' W 127°14'6 2.0
2014-Aug-25 12:10N 50°54' W 127°18'0 0.0
2014-Aug-25 10:04N 50°54' W 127°18'0 0.0
2014-Aug-25 08:16N 50°54' W 127°18'0 0.0
2014-Aug-25 06:28N 50°54' W 127°18'0 0.0
2014-Aug-25 00:11N 50°54' W 127°18'0 0.0
2014-Aug-24 22:11N 50°54' W 127°18'  
2014-Aug-18 18:27N 52°10' W 128°01'3 2.1
2014-Aug-18 17:06N 52°09' W 128°05'0 0.0
2014-Aug-18 16:30N 52°09' W 128°05'0 0.0
2014-Aug-18 15:24N 52°09' W 128°05'0 0.0
2014-Aug-18 14:30N 52°09' W 128°05'0 0.0
2014-Aug-18 13:30N 52°09' W 128°05'0 0.0
2014-Aug-18 12:18N 52°09' W 128°05'0 0.0
2014-Aug-18 11:30N 52°09' W 128°05'0 0.0
2014-Aug-18 10:30N 52°09' W 128°05'0 0.0
2014-Aug-18 09:30N 52°09' W 128°05'0 0.0
2014-Aug-18 08:24N 52°09' W 128°05'0 0.0
2014-Aug-18 06:18N 52°09' W 128°05'0 0.0
2014-Aug-18 00:18N 52°09' W 128°05'0 0.0
2014-Aug-17 18:12N 52°09' W 128°05'0 0.0
2014-Aug-17 17:30N 52°09' W 128°05'4 3.8
2014-Aug-17 16:29N 52°12' W 128°08'  

Dump ship's entire track history